sensor_id;sensor_type;location;lat;lon;timestamp;P1;durP1;ratioP1;P2;durP2;ratioP2
52898;SDS011;38763;53.096;6.062;2023-11-18T00:00:31;131.65;;;50.85;;
52898;SDS011;38763;53.096;6.062;2023-11-18T00:02:57;138.77;;;51.58;;
52898;SDS011;38763;53.096;6.062;2023-11-18T00:05:22;161.77;;;55.63;;
52898;SDS011;38763;53.096;6.062;2023-11-18T00:07:49;143.05;;;51.42;;
52898;SDS011;38763;53.096;6.062;2023-11-18T00:10:15;170.85;;;56.17;;
52898;SDS011;38763;53.096;6.062;2023-11-18T00:12:41;177.23;;;57.42;;
52898;SDS011;38763;53.096;6.062;2023-11-18T00:15:07;153.63;;;52.33;;
52898;SDS011;38763;53.096;6.062;2023-11-18T00:17:39;147.80;;;52.60;;
52898;SDS011;38763;53.096;6.062;2023-11-18T00:20:05;186.77;;;58.50;;
52898;SDS011;38763;53.096;6.062;2023-11-18T00:22:37;167.05;;;55.70;;
52898;SDS011;38763;53.096;6.062;2023-11-18T00:25:04;177.40;;;56.22;;
52898;SDS011;38763;53.096;6.062;2023-11-18T00:27:32;173.52;;;56.28;;
52898;SDS011;38763;53.096;6.062;2023-11-18T00:30:01;178.57;;;58.00;;
52898;SDS011;38763;53.096;6.062;2023-11-18T00:32:30;140.27;;;51.63;;
52898;SDS011;38763;53.096;6.062;2023-11-18T00:35:00;183.40;;;60.15;;
52898;SDS011;38763;53.096;6.062;2023-11-18T00:37:26;168.90;;;56.95;;
52898;SDS011;38763;53.096;6.062;2023-11-18T00:39:52;175.32;;;59.13;;
52898;SDS011;38763;53.096;6.062;2023-11-18T00:42:17;192.18;;;62.20;;
52898;SDS011;38763;53.096;6.062;2023-11-18T00:44:43;181.90;;;58.22;;
52898;SDS011;38763;53.096;6.062;2023-11-18T00:47:09;175.32;;;58.03;;
52898;SDS011;38763;53.096;6.062;2023-11-18T00:49:34;158.38;;;55.97;;
52898;SDS011;38763;53.096;6.062;2023-11-18T00:52:00;190.63;;;61.60;;
52898;SDS011;38763;53.096;6.062;2023-11-18T00:54:25;179.90;;;60.35;;
52898;SDS011;38763;53.096;6.062;2023-11-18T00:56:51;171.65;;;60.85;;
52898;SDS011;38763;53.096;6.062;2023-11-18T00:59:17;191.77;;;63.88;;
52898;SDS011;38763;53.096;6.062;2023-11-18T01:01:43;197.40;;;63.40;;
52898;SDS011;38763;53.096;6.062;2023-11-18T01:04:08;195.07;;;64.28;;
52898;SDS011;38763;53.096;6.062;2023-11-18T01:06:34;173.10;;;59.35;;
52898;SDS011;38763;53.096;6.062;2023-11-18T01:09:00;184.93;;;61.83;;
52898;SDS011;38763;53.096;6.062;2023-11-18T01:11:26;185.77;;;60.70;;
52898;SDS011;38763;53.096;6.062;2023-11-18T01:13:51;188.57;;;62.30;;
52898;SDS011;38763;53.096;6.062;2023-11-18T01:16:19;205.52;;;63.47;;
52898;SDS011;38763;53.096;6.062;2023-11-18T01:18:45;205.07;;;65.80;;
52898;SDS011;38763;53.096;6.062;2023-11-18T01:21:11;178.68;;;60.35;;
52898;SDS011;38763;53.096;6.062;2023-11-18T01:23:37;218.30;;;68.03;;
52898;SDS011;38763;53.096;6.062;2023-11-18T01:26:04;226.55;;;69.13;;
52898;SDS011;38763;53.096;6.062;2023-11-18T01:28:34;198.70;;;66.43;;
52898;SDS011;38763;53.096;6.062;2023-11-18T01:31:06;200.88;;;68.60;;
52898;SDS011;38763;53.096;6.062;2023-11-18T01:33:43;212.57;;;68.53;;
52898;SDS011;38763;53.096;6.062;2023-11-18T01:36:11;218.85;;;70.05;;
52898;SDS011;38763;53.096;6.062;2023-11-18T01:38:37;235.52;;;73.20;;
52898;SDS011;38763;53.096;6.062;2023-11-18T01:41:06;216.90;;;71.20;;
52898;SDS011;38763;53.096;6.062;2023-11-18T01:43:32;215.00;;;69.13;;
52898;SDS011;38763;53.096;6.062;2023-11-18T01:46:02;233.18;;;75.45;;
52898;SDS011;38763;53.096;6.062;2023-11-18T01:48:30;206.88;;;69.25;;
52898;SDS011;38763;53.096;6.062;2023-11-18T01:50:58;221.35;;;72.38;;
52898;SDS011;38763;53.096;6.062;2023-11-18T01:53:24;199.77;;;68.07;;
52898;SDS011;38763;53.096;6.062;2023-11-18T01:55:52;200.57;;;66.97;;
52898;SDS011;38763;53.096;6.062;2023-11-18T01:58:18;215.85;;;71.18;;
52898;SDS011;38763;53.096;6.062;2023-11-18T02:00:45;224.93;;;73.90;;
52898;SDS011;38763;53.096;6.062;2023-11-18T02:03:11;217.50;;;72.25;;
52898;SDS011;38763;53.096;6.062;2023-11-18T02:05:38;205.20;;;69.28;;
52898;SDS011;38763;53.096;6.062;2023-11-18T02:08:04;226.50;;;72.70;;
52898;SDS011;38763;53.096;6.062;2023-11-18T02:10:33;232.35;;;74.82;;
52898;SDS011;38763;53.096;6.062;2023-11-18T02:13:09;202.18;;;69.00;;
52898;SDS011;38763;53.096;6.062;2023-11-18T02:15:42;211.02;;;71.72;;
52898;SDS011;38763;53.096;6.062;2023-11-18T02:18:10;224.02;;;74.53;;
52898;SDS011;38763;53.096;6.062;2023-11-18T02:20:37;212.60;;;71.20;;
52898;SDS011;38763;53.096;6.062;2023-11-18T02:23:04;250.02;;;77.03;;
52898;SDS011;38763;53.096;6.062;2023-11-18T02:25:33;212.98;;;71.07;;
52898;SDS011;38763;53.096;6.062;2023-11-18T02:28:04;238.93;;;75.73;;
52898;SDS011;38763;53.096;6.062;2023-11-18T02:30:30;270.98;;;81.30;;
52898;SDS011;38763;53.096;6.062;2023-11-18T02:38:13;274.73;;;81.10;;
52898;SDS011;38763;53.096;6.062;2023-11-18T02:40:43;299.83;;;83.32;;
52898;SDS011;38763;53.096;6.062;2023-11-18T02:43:10;281.70;;;81.00;;
52898;SDS011;38763;53.096;6.062;2023-11-18T02:45:36;329.05;;;86.95;;
52898;SDS011;38763;53.096;6.062;2023-11-18T02:48:03;349.88;;;91.25;;
52898;SDS011;38763;53.096;6.062;2023-11-18T02:50:31;317.50;;;87.22;;
52898;SDS011;38763;53.096;6.062;2023-11-18T02:52:57;386.70;;;93.00;;
52898;SDS011;38763;53.096;6.062;2023-11-18T02:55:23;342.23;;;83.68;;
52898;SDS011;38763;53.096;6.062;2023-11-18T02:57:49;436.60;;;97.95;;
52898;SDS011;38763;53.096;6.062;2023-11-18T03:00:16;325.17;;;83.55;;
52898;SDS011;38763;53.096;6.062;2023-11-18T03:02:46;428.77;;;97.70;;
52898;SDS011;38763;53.096;6.062;2023-11-18T03:05:16;475.90;;;97.40;;
52898;SDS011;38763;53.096;6.062;2023-11-18T03:07:45;449.17;;;92.22;;
52898;SDS011;38763;53.096;6.062;2023-11-18T03:10:15;411.75;;;87.55;;
52898;SDS011;38763;53.096;6.062;2023-11-18T03:12:46;469.73;;;101.30;;
52898;SDS011;38763;53.096;6.062;2023-11-18T03:15:15;378.95;;;86.32;;
52898;SDS011;38763;53.096;6.062;2023-11-18T03:17:45;389.10;;;89.63;;
52898;SDS011;38763;53.096;6.062;2023-11-18T03:20:13;385.00;;;85.65;;
52898;SDS011;38763;53.096;6.062;2023-11-18T03:22:48;413.55;;;88.25;;
52898;SDS011;38763;53.096;6.062;2023-11-18T03:25:16;426.27;;;93.40;;
52898;SDS011;38763;53.096;6.062;2023-11-18T03:27:44;416.90;;;92.90;;
52898;SDS011;38763;53.096;6.062;2023-11-18T03:30:10;336.85;;;84.55;;
52898;SDS011;38763;53.096;6.062;2023-11-18T03:32:36;388.73;;;86.65;;
52898;SDS011;38763;53.096;6.062;2023-11-18T03:35:02;332.52;;;83.45;;
52898;SDS011;38763;53.096;6.062;2023-11-18T03:37:32;349.73;;;79.97;;
52898;SDS011;38763;53.096;6.062;2023-11-18T03:39:57;361.42;;;83.13;;
52898;SDS011;38763;53.096;6.062;2023-11-18T03:42:23;352.88;;;80.47;;
52898;SDS011;38763;53.096;6.062;2023-11-18T03:44:49;447.13;;;90.75;;
52898;SDS011;38763;53.096;6.062;2023-11-18T03:47:14;417.65;;;91.22;;
52898;SDS011;38763;53.096;6.062;2023-11-18T03:49:43;376.00;;;89.68;;
52898;SDS011;38763;53.096;6.062;2023-11-18T03:52:09;406.88;;;84.85;;
52898;SDS011;38763;53.096;6.062;2023-11-18T03:54:34;392.17;;;86.88;;
52898;SDS011;38763;53.096;6.062;2023-11-18T03:57:00;394.27;;;83.10;;
52898;SDS011;38763;53.096;6.062;2023-11-18T03:59:25;382.75;;;85.60;;
52898;SDS011;38763;53.096;6.062;2023-11-18T04:01:51;300.75;;;79.03;;
52898;SDS011;38763;53.096;6.062;2023-11-18T04:04:17;324.85;;;82.97;;
52898;SDS011;38763;53.096;6.062;2023-11-18T04:06:43;365.88;;;88.03;;
52898;SDS011;38763;53.096;6.062;2023-11-18T04:09:09;313.13;;;81.97;;
52898;SDS011;38763;53.096;6.062;2023-11-18T04:11:35;344.30;;;88.15;;
52898;SDS011;38763;53.096;6.062;2023-11-18T04:14:01;332.65;;;85.65;;
52898;SDS011;38763;53.096;6.062;2023-11-18T04:16:28;282.77;;;80.95;;
52898;SDS011;38763;53.096;6.062;2023-11-18T04:18:54;292.10;;;79.50;;
52898;SDS011;38763;53.096;6.062;2023-11-18T04:21:20;285.98;;;79.05;;
52898;SDS011;38763;53.096;6.062;2023-11-18T04:23:46;263.50;;;78.40;;
52898;SDS011;38763;53.096;6.062;2023-11-18T04:26:12;267.88;;;78.57;;
52898;SDS011;38763;53.096;6.062;2023-11-18T04:28:38;261.17;;;78.55;;
52898;SDS011;38763;53.096;6.062;2023-11-18T04:31:04;288.63;;;82.15;;
52898;SDS011;38763;53.096;6.062;2023-11-18T04:33:30;310.15;;;82.90;;
52898;SDS011;38763;53.096;6.062;2023-11-18T04:35:56;321.10;;;83.90;;
52898;SDS011;38763;53.096;6.062;2023-11-18T04:38:24;334.58;;;82.88;;
52898;SDS011;38763;53.096;6.062;2023-11-18T04:40:51;334.83;;;84.65;;
52898;SDS011;38763;53.096;6.062;2023-11-18T04:43:19;306.33;;;78.78;;
52898;SDS011;38763;53.096;6.062;2023-11-18T04:45:45;318.00;;;81.00;;
52898;SDS011;38763;53.096;6.062;2023-11-18T04:48:10;396.95;;;90.10;;
52898;SDS011;38763;53.096;6.062;2023-11-18T04:50:38;422.92;;;96.57;;
52898;SDS011;38763;53.096;6.062;2023-11-18T04:53:06;349.15;;;81.53;;
52898;SDS011;38763;53.096;6.062;2023-11-18T04:55:38;390.27;;;88.28;;
52898;SDS011;38763;53.096;6.062;2023-11-18T04:58:04;323.08;;;82.07;;
52898;SDS011;38763;53.096;6.062;2023-11-18T05:00:33;331.27;;;80.95;;
52898;SDS011;38763;53.096;6.062;2023-11-18T05:02:59;317.55;;;80.10;;
52898;SDS011;38763;53.096;6.062;2023-11-18T05:05:25;334.88;;;81.10;;
52898;SDS011;38763;53.096;6.062;2023-11-18T05:07:51;394.40;;;92.75;;
52898;SDS011;38763;53.096;6.062;2023-11-18T05:10:16;350.10;;;82.43;;
52898;SDS011;38763;53.096;6.062;2023-11-18T05:12:43;281.25;;;76.53;;
52898;SDS011;38763;53.096;6.062;2023-11-18T05:15:09;329.92;;;80.50;;
52898;SDS011;38763;53.096;6.062;2023-11-18T05:17:35;341.60;;;80.72;;
52898;SDS011;38763;53.096;6.062;2023-11-18T05:20:02;363.38;;;86.93;;
52898;SDS011;38763;53.096;6.062;2023-11-18T05:22:29;269.67;;;74.63;;
52898;SDS011;38763;53.096;6.062;2023-11-18T05:24:54;329.02;;;81.70;;
52898;SDS011;38763;53.096;6.062;2023-11-18T05:27:20;316.95;;;79.10;;
52898;SDS011;38763;53.096;6.062;2023-11-18T05:29:45;290.20;;;75.65;;
52898;SDS011;38763;53.096;6.062;2023-11-18T05:34:50;346.52;;;81.30;;
52898;SDS011;38763;53.096;6.062;2023-11-18T05:37:19;395.98;;;91.18;;
52898;SDS011;38763;53.096;6.062;2023-11-18T05:39:45;275.02;;;75.00;;
52898;SDS011;38763;53.096;6.062;2023-11-18T05:42:11;312.83;;;79.65;;
52898;SDS011;38763;53.096;6.062;2023-11-18T05:44:37;314.50;;;79.75;;
52898;SDS011;38763;53.096;6.062;2023-11-18T05:47:05;337.60;;;80.68;;
52898;SDS011;38763;53.096;6.062;2023-11-18T05:49:32;316.13;;;76.97;;
52898;SDS011;38763;53.096;6.062;2023-11-18T05:52:00;329.25;;;79.70;;
52898;SDS011;38763;53.096;6.062;2023-11-18T05:54:26;299.83;;;75.30;;
52898;SDS011;38763;53.096;6.062;2023-11-18T05:56:51;283.00;;;73.07;;
52898;SDS011;38763;53.096;6.062;2023-11-18T05:59:19;284.80;;;76.03;;
52898;SDS011;38763;53.096;6.062;2023-11-18T06:01:44;368.70;;;89.78;;
52898;SDS011;38763;53.096;6.062;2023-11-18T06:04:12;336.17;;;82.30;;
52898;SDS011;38763;53.096;6.062;2023-11-18T06:06:38;343.60;;;84.78;;
52898;SDS011;38763;53.096;6.062;2023-11-18T06:09:04;297.92;;;75.40;;
52898;SDS011;38763;53.096;6.062;2023-11-18T06:11:34;266.35;;;74.85;;
52898;SDS011;38763;53.096;6.062;2023-11-18T06:14:00;315.48;;;81.18;;
52898;SDS011;38763;53.096;6.062;2023-11-18T06:16:26;238.82;;;71.65;;
52898;SDS011;38763;53.096;6.062;2023-11-18T06:18:53;272.58;;;74.47;;
52898;SDS011;38763;53.096;6.062;2023-11-18T06:21:20;249.13;;;71.75;;
52898;SDS011;38763;53.096;6.062;2023-11-18T06:23:49;290.55;;;78.65;;
52898;SDS011;38763;53.096;6.062;2023-11-18T06:26:16;242.02;;;71.18;;
52898;SDS011;38763;53.096;6.062;2023-11-18T06:28:43;277.83;;;79.22;;
52898;SDS011;38763;53.096;6.062;2023-11-18T06:31:10;257.40;;;75.38;;
52898;SDS011;38763;53.096;6.062;2023-11-18T06:33:37;248.27;;;73.32;;
52898;SDS011;38763;53.096;6.062;2023-11-18T06:36:07;228.80;;;70.30;;
52898;SDS011;38763;53.096;6.062;2023-11-18T06:38:34;235.48;;;70.53;;
52898;SDS011;38763;53.096;6.062;2023-11-18T06:41:00;216.23;;;69.20;;
52898;SDS011;38763;53.096;6.062;2023-11-18T06:43:27;248.18;;;75.75;;
52898;SDS011;38763;53.096;6.062;2023-11-18T06:46:01;256.33;;;77.25;;
52898;SDS011;38763;53.096;6.062;2023-11-18T06:48:27;257.25;;;76.07;;
52898;SDS011;38763;53.096;6.062;2023-11-18T06:50:52;226.60;;;71.25;;
52898;SDS011;38763;53.096;6.062;2023-11-18T06:53:18;222.80;;;69.32;;
52898;SDS011;38763;53.096;6.062;2023-11-18T06:55:45;238.88;;;70.63;;
52898;SDS011;38763;53.096;6.062;2023-11-18T06:58:11;207.18;;;67.10;;
52898;SDS011;38763;53.096;6.062;2023-11-18T07:00:38;193.52;;;63.30;;
52898;SDS011;38763;53.096;6.062;2023-11-18T07:03:03;225.90;;;69.72;;
52898;SDS011;38763;53.096;6.062;2023-11-18T07:05:30;236.85;;;69.57;;
52898;SDS011;38763;53.096;6.062;2023-11-18T07:07:56;195.73;;;63.30;;
52898;SDS011;38763;53.096;6.062;2023-11-18T07:10:22;206.75;;;66.35;;
52898;SDS011;38763;53.096;6.062;2023-11-18T07:12:47;217.65;;;68.10;;
52898;SDS011;38763;53.096;6.062;2023-11-18T07:15:13;227.40;;;67.85;;
52898;SDS011;38763;53.096;6.062;2023-11-18T07:17:40;202.85;;;64.20;;
52898;SDS011;38763;53.096;6.062;2023-11-18T07:20:05;190.25;;;62.53;;
52898;SDS011;38763;53.096;6.062;2023-11-18T07:22:31;209.70;;;65.15;;
52898;SDS011;38763;53.096;6.062;2023-11-18T07:24:57;198.10;;;61.90;;
52898;SDS011;38763;53.096;6.062;2023-11-18T07:27:23;225.70;;;67.90;;
52898;SDS011;38763;53.096;6.062;2023-11-18T07:29:48;210.35;;;64.72;;
52898;SDS011;38763;53.096;6.062;2023-11-18T07:32:14;201.13;;;61.80;;
52898;SDS011;38763;53.096;6.062;2023-11-18T07:34:39;238.40;;;68.88;;
52898;SDS011;38763;53.096;6.062;2023-11-18T07:37:06;211.23;;;65.40;;
52898;SDS011;38763;53.096;6.062;2023-11-18T07:39:33;199.80;;;62.90;;
52898;SDS011;38763;53.096;6.062;2023-11-18T07:42:25;207.88;;;64.18;;
52898;SDS011;38763;53.096;6.062;2023-11-18T07:44:51;224.15;;;65.43;;
52898;SDS011;38763;53.096;6.062;2023-11-18T07:47:16;171.63;;;58.03;;
52898;SDS011;38763;53.096;6.062;2023-11-18T07:49:42;216.85;;;66.90;;
52898;SDS011;38763;53.096;6.062;2023-11-18T07:52:07;204.18;;;63.40;;
52898;SDS011;38763;53.096;6.062;2023-11-18T07:54:33;209.20;;;64.57;;
52898;SDS011;38763;53.096;6.062;2023-11-18T07:56:59;187.82;;;62.05;;
52898;SDS011;38763;53.096;6.062;2023-11-18T07:59:25;176.35;;;58.63;;
52898;SDS011;38763;53.096;6.062;2023-11-18T08:01:51;198.10;;;61.00;;
52898;SDS011;38763;53.096;6.062;2023-11-18T08:04:18;216.77;;;64.15;;
52898;SDS011;38763;53.096;6.062;2023-11-18T08:06:45;185.10;;;61.10;;
52898;SDS011;38763;53.096;6.062;2023-11-18T08:09:11;174.07;;;58.58;;
52898;SDS011;38763;53.096;6.062;2023-11-18T08:11:37;200.80;;;62.63;;
52898;SDS011;38763;53.096;6.062;2023-11-18T08:14:06;210.57;;;66.18;;
52898;SDS011;38763;53.096;6.062;2023-11-18T08:16:35;171.57;;;59.30;;
52898;SDS011;38763;53.096;6.062;2023-11-18T08:19:01;179.77;;;58.65;;
52898;SDS011;38763;53.096;6.062;2023-11-18T08:21:27;165.35;;;56.55;;
52898;SDS011;38763;53.096;6.062;2023-11-18T08:23:53;171.75;;;57.17;;
52898;SDS011;38763;53.096;6.062;2023-11-18T08:26:20;168.20;;;57.95;;
52898;SDS011;38763;53.096;6.062;2023-11-18T08:28:46;171.35;;;55.28;;
52898;SDS011;38763;53.096;6.062;2023-11-18T08:31:15;186.45;;;59.47;;
52898;SDS011;38763;53.096;6.062;2023-11-18T08:33:41;168.60;;;55.97;;
52898;SDS011;38763;53.096;6.062;2023-11-18T08:36:08;190.93;;;59.28;;
52898;SDS011;38763;53.096;6.062;2023-11-18T08:38:34;196.25;;;60.30;;
52898;SDS011;38763;53.096;6.062;2023-11-18T08:41:00;203.27;;;62.47;;
52898;SDS011;38763;53.096;6.062;2023-11-18T08:43:26;210.70;;;65.22;;
52898;SDS011;38763;53.096;6.062;2023-11-18T08:45:54;177.02;;;57.25;;
52898;SDS011;38763;53.096;6.062;2023-11-18T08:48:21;160.18;;;55.58;;
52898;SDS011;38763;53.096;6.062;2023-11-18T08:50:48;170.60;;;54.85;;
52898;SDS011;38763;53.096;6.062;2023-11-18T08:53:13;157.63;;;53.95;;
52898;SDS011;38763;53.096;6.062;2023-11-18T08:55:43;168.05;;;55.47;;
52898;SDS011;38763;53.096;6.062;2023-11-18T08:58:19;165.27;;;55.30;;
52898;SDS011;38763;53.096;6.062;2023-11-18T09:00:47;164.23;;;53.75;;
52898;SDS011;38763;53.096;6.062;2023-11-18T09:03:18;172.27;;;54.95;;
52898;SDS011;38763;53.096;6.062;2023-11-18T09:06:01;171.35;;;55.17;;
52898;SDS011;38763;53.096;6.062;2023-11-18T09:08:37;164.50;;;53.38;;
52898;SDS011;38763;53.096;6.062;2023-11-18T09:11:07;140.07;;;47.72;;
52898;SDS011;38763;53.096;6.062;2023-11-18T09:13:36;142.80;;;49.25;;
52898;SDS011;38763;53.096;6.062;2023-11-18T09:16:04;135.25;;;47.15;;
52898;SDS011;38763;53.096;6.062;2023-11-18T09:18:37;151.48;;;50.33;;
52898;SDS011;38763;53.096;6.062;2023-11-18T09:21:05;149.68;;;49.28;;
52898;SDS011;38763;53.096;6.062;2023-11-18T09:23:31;122.45;;;43.58;;
52898;SDS011;38763;53.096;6.062;2023-11-18T09:25:59;148.35;;;49.85;;
52898;SDS011;38763;53.096;6.062;2023-11-18T09:28:26;145.32;;;48.22;;
52898;SDS011;38763;53.096;6.062;2023-11-18T09:30:55;146.32;;;48.50;;
52898;SDS011;38763;53.096;6.062;2023-11-18T09:33:28;132.65;;;46.13;;
52898;SDS011;38763;53.096;6.062;2023-11-18T09:36:04;131.85;;;45.33;;
52898;SDS011;38763;53.096;6.062;2023-11-18T09:38:34;153.27;;;49.53;;
52898;SDS011;38763;53.096;6.062;2023-11-18T09:41:01;138.75;;;49.92;;
52898;SDS011;38763;53.096;6.062;2023-11-18T09:43:32;140.50;;;49.22;;
52898;SDS011;38763;53.096;6.062;2023-11-18T09:46:07;137.20;;;47.53;;
52898;SDS011;38763;53.096;6.062;2023-11-18T09:48:40;155.07;;;49.88;;
52898;SDS011;38763;53.096;6.062;2023-11-18T09:51:21;145.77;;;52.72;;
52898;SDS011;38763;53.096;6.062;2023-11-18T09:53:49;145.57;;;50.53;;
52898;SDS011;38763;53.096;6.062;2023-11-18T09:56:18;134.60;;;49.35;;
52898;SDS011;38763;53.096;6.062;2023-11-18T09:59:01;133.55;;;50.83;;
52898;SDS011;38763;53.096;6.062;2023-11-18T10:01:33;142.20;;;50.67;;
52898;SDS011;38763;53.096;6.062;2023-11-18T10:04:04;128.70;;;48.58;;
52898;SDS011;38763;53.096;6.062;2023-11-18T10:06:32;137.77;;;49.92;;
52898;SDS011;38763;53.096;6.062;2023-11-18T10:09:01;130.43;;;49.60;;
52898;SDS011;38763;53.096;6.062;2023-11-18T10:11:40;134.75;;;49.72;;
52898;SDS011;38763;53.096;6.062;2023-11-18T10:14:07;125.38;;;47.92;;
52898;SDS011;38763;53.096;6.062;2023-11-18T10:16:33;125.90;;;47.97;;
52898;SDS011;38763;53.096;6.062;2023-11-18T10:18:59;132.05;;;48.97;;
52898;SDS011;38763;53.096;6.062;2023-11-18T10:21:36;128.18;;;47.55;;
52898;SDS011;38763;53.096;6.062;2023-11-18T10:24:04;123.72;;;46.70;;
52898;SDS011;38763;53.096;6.062;2023-11-18T10:26:39;126.55;;;45.70;;
52898;SDS011;38763;53.096;6.062;2023-11-18T10:29:06;118.38;;;46.47;;
52898;SDS011;38763;53.096;6.062;2023-11-18T10:31:34;128.80;;;46.70;;
52898;SDS011;38763;53.096;6.062;2023-11-18T10:34:09;117.65;;;44.10;;
52898;SDS011;38763;53.096;6.062;2023-11-18T10:36:36;118.95;;;45.38;;
52898;SDS011;38763;53.096;6.062;2023-11-18T10:39:02;128.23;;;46.08;;
52898;SDS011;38763;53.096;6.062;2023-11-18T10:41:40;117.82;;;44.47;;
52898;SDS011;38763;53.096;6.062;2023-11-18T10:44:08;121.93;;;44.85;;
52898;SDS011;38763;53.096;6.062;2023-11-18T10:46:52;119.78;;;43.47;;
52898;SDS011;38763;53.096;6.062;2023-11-18T10:49:22;105.00;;;38.22;;
52898;SDS011;38763;53.096;6.062;2023-11-18T10:51:47;108.85;;;40.80;;
52898;SDS011;38763;53.096;6.062;2023-11-18T10:54:15;124.47;;;44.17;;
52898;SDS011;38763;53.096;6.062;2023-11-18T10:56:50;119.80;;;41.85;;
52898;SDS011;38763;53.096;6.062;2023-11-18T10:59:21;106.07;;;39.40;;
52898;SDS011;38763;53.096;6.062;2023-11-18T11:01:47;111.97;;;42.95;;
52898;SDS011;38763;53.096;6.062;2023-11-18T11:04:14;112.45;;;42.22;;
52898;SDS011;38763;53.096;6.062;2023-11-18T11:06:48;130.60;;;44.17;;
52898;SDS011;38763;53.096;6.062;2023-11-18T11:09:19;120.28;;;43.35;;
52898;SDS011;38763;53.096;6.062;2023-11-18T11:11:52;117.25;;;42.30;;
52898;SDS011;38763;53.096;6.062;2023-11-18T11:14:32;116.28;;;42.40;;
52898;SDS011;38763;53.096;6.062;2023-11-18T11:17:05;122.68;;;43.67;;
52898;SDS011;38763;53.096;6.062;2023-11-18T11:20:22;123.35;;;44.38;;
52898;SDS011;38763;53.096;6.062;2023-11-18T11:22:53;119.18;;;43.40;;
52898;SDS011;38763;53.096;6.062;2023-11-18T11:25:42;115.90;;;41.87;;
52898;SDS011;38763;53.096;6.062;2023-11-18T11:28:21;115.65;;;40.95;;
52898;SDS011;38763;53.096;6.062;2023-11-18T11:30:55;115.50;;;42.47;;
52898;SDS011;38763;53.096;6.062;2023-11-18T11:36:05;117.68;;;43.55;;
52898;SDS011;38763;53.096;6.062;2023-11-18T11:38:36;122.60;;;44.05;;
52898;SDS011;38763;53.096;6.062;2023-11-18T11:41:03;138.57;;;45.65;;
52898;SDS011;38763;53.096;6.062;2023-11-18T11:43:30;140.15;;;46.20;;
52898;SDS011;38763;53.096;6.062;2023-11-18T11:45:59;120.05;;;41.10;;
52898;SDS011;38763;53.096;6.062;2023-11-18T11:48:35;143.35;;;47.38;;
52898;SDS011;38763;53.096;6.062;2023-11-18T11:56:44;127.82;;;45.60;;
52898;SDS011;38763;53.096;6.062;2023-11-18T11:59:34;129.48;;;48.08;;
52898;SDS011;38763;53.096;6.062;2023-11-18T12:02:02;132.60;;;48.25;;
52898;SDS011;38763;53.096;6.062;2023-11-18T12:04:33;123.45;;;44.33;;
52898;SDS011;38763;53.096;6.062;2023-11-18T12:07:03;134.93;;;48.85;;
52898;SDS011;38763;53.096;6.062;2023-11-18T12:09:33;147.23;;;51.25;;
52898;SDS011;38763;53.096;6.062;2023-11-18T12:12:04;127.68;;;47.63;;
52898;SDS011;38763;53.096;6.062;2023-11-18T12:18:28;97.18;;;40.50;;
52898;SDS011;38763;53.096;6.062;2023-11-18T12:23:12;95.95;;;39.30;;
52898;SDS011;38763;53.096;6.062;2023-11-18T12:25:46;97.88;;;41.30;;
52898;SDS011;38763;53.096;6.062;2023-11-18T12:28:19;107.75;;;43.03;;
52898;SDS011;38763;53.096;6.062;2023-11-18T12:30:47;100.75;;;42.17;;
52898;SDS011;38763;53.096;6.062;2023-11-18T12:33:51;109.43;;;42.05;;
52898;SDS011;38763;53.096;6.062;2023-11-18T12:42:05;77.25;;;34.95;;
52898;SDS011;38763;53.096;6.062;2023-11-18T12:47:39;88.18;;;36.50;;
52898;SDS011;38763;53.096;6.062;2023-11-18T12:50:09;67.88;;;31.98;;
52898;SDS011;38763;53.096;6.062;2023-11-18T12:52:49;80.90;;;34.25;;
52898;SDS011;38763;53.096;6.062;2023-11-18T12:55:19;80.93;;;33.75;;
52898;SDS011;38763;53.096;6.062;2023-11-18T12:57:46;64.78;;;30.15;;
52898;SDS011;38763;53.096;6.062;2023-11-18T13:00:19;77.95;;;32.45;;
52898;SDS011;38763;53.096;6.062;2023-11-18T13:02:52;81.22;;;31.88;;
52898;SDS011;38763;53.096;6.062;2023-11-18T13:05:19;68.55;;;32.50;;
52898;SDS011;38763;53.096;6.062;2023-11-18T13:07:45;69.80;;;32.20;;
52898;SDS011;38763;53.096;6.062;2023-11-18T13:10:12;73.50;;;30.95;;
52898;SDS011;38763;53.096;6.062;2023-11-18T13:12:41;73.47;;;30.70;;
52898;SDS011;38763;53.096;6.062;2023-11-18T13:15:08;71.63;;;30.23;;
52898;SDS011;38763;53.096;6.062;2023-11-18T13:17:34;75.00;;;30.77;;
52898;SDS011;38763;53.096;6.062;2023-11-18T13:20:12;69.90;;;31.05;;
52898;SDS011;38763;53.096;6.062;2023-11-18T13:22:39;63.92;;;29.80;;
52898;SDS011;38763;53.096;6.062;2023-11-18T13:25:07;53.08;;;24.00;;
52898;SDS011;38763;53.096;6.062;2023-11-18T13:27:34;66.05;;;28.00;;
52898;SDS011;38763;53.096;6.062;2023-11-18T13:30:01;61.60;;;27.00;;
52898;SDS011;38763;53.096;6.062;2023-11-18T13:32:28;60.17;;;28.60;;
52898;SDS011;38763;53.096;6.062;2023-11-18T13:34:54;62.00;;;29.08;;
52898;SDS011;38763;53.096;6.062;2023-11-18T13:37:20;62.10;;;29.75;;
52898;SDS011;38763;53.096;6.062;2023-11-18T13:39:53;72.85;;;31.98;;
52898;SDS011;38763;53.096;6.062;2023-11-18T13:42:20;52.92;;;25.13;;
52898;SDS011;38763;53.096;6.062;2023-11-18T13:44:48;62.03;;;28.85;;
52898;SDS011;38763;53.096;6.062;2023-11-18T13:47:18;59.38;;;28.83;;
52898;SDS011;38763;53.096;6.062;2023-11-18T13:49:45;55.97;;;25.85;;
52898;SDS011;38763;53.096;6.062;2023-11-18T13:52:15;62.05;;;29.52;;
52898;SDS011;38763;53.096;6.062;2023-11-18T13:54:43;52.28;;;25.63;;
52898;SDS011;38763;53.096;6.062;2023-11-18T13:57:10;57.35;;;26.92;;
52898;SDS011;38763;53.096;6.062;2023-11-18T13:59:36;55.35;;;26.58;;
52898;SDS011;38763;53.096;6.062;2023-11-18T14:02:03;50.58;;;24.95;;
52898;SDS011;38763;53.096;6.062;2023-11-18T14:04:30;55.65;;;26.35;;
52898;SDS011;38763;53.096;6.062;2023-11-18T14:07:01;55.95;;;26.55;;
52898;SDS011;38763;53.096;6.062;2023-11-18T14:09:31;79.65;;;45.38;;
52898;SDS011;38763;53.096;6.062;2023-11-18T14:12:01;48.88;;;25.13;;
52898;SDS011;38763;53.096;6.062;2023-11-18T14:14:28;53.92;;;26.33;;
52898;SDS011;38763;53.096;6.062;2023-11-18T14:16:54;39.95;;;21.52;;
52898;SDS011;38763;53.096;6.062;2023-11-18T14:19:24;58.67;;;27.88;;
52898;SDS011;38763;53.096;6.062;2023-11-18T14:21:50;50.72;;;26.38;;
52898;SDS011;38763;53.096;6.062;2023-11-18T14:24:16;42.25;;;23.00;;
52898;SDS011;38763;53.096;6.062;2023-11-18T14:26:43;52.92;;;26.10;;
52898;SDS011;38763;53.096;6.062;2023-11-18T14:29:09;43.72;;;24.13;;
52898;SDS011;38763;53.096;6.062;2023-11-18T14:31:36;56.95;;;34.25;;
52898;SDS011;38763;53.096;6.062;2023-11-18T14:34:02;55.67;;;30.67;;
52898;SDS011;38763;53.096;6.062;2023-11-18T14:36:29;48.50;;;26.70;;
52898;SDS011;38763;53.096;6.062;2023-11-18T14:38:55;57.13;;;29.63;;
52898;SDS011;38763;53.096;6.062;2023-11-18T14:41:20;54.05;;;28.83;;
52898;SDS011;38763;53.096;6.062;2023-11-18T14:43:51;45.20;;;22.10;;
52898;SDS011;38763;53.096;6.062;2023-11-18T14:46:19;50.35;;;26.20;;
52898;SDS011;38763;53.096;6.062;2023-11-18T14:48:45;47.03;;;24.33;;